Time;durP1;ratioP1;P1;durP2;ratioP2;P2;SDS_P1;SDS_P2;PMS_P1;PMS_P2;Temp;Humidity;BMP_temperature;BMP_pressure;BME280_temperature;BME280_humidity;BME280_pressure;Samples;Min_cycle;Max_cycle;Signal;HPM_P1;HPM_P2
2023/12/15 00:00:56;;;;;;;;;;;7.50;99.90;;;;;;6307561;22;20321;-83
2023/12/15 00:03:22;;;;;;;;;;;7.50;99.90;;;;;;6308018;22;20269;-83
2023/12/15 00:05:47;;;;;;;;;;;7.40;99.90;;;;;;6307686;22;20293;-83
2023/12/15 00:08:13;;;;;;;;;;;7.40;99.90;;;;;;6280298;22;19947;-83
2023/12/15 00:10:38;;;;;;;;;;;7.40;99.90;;;;;;6308020;22;19899;-82
2023/12/15 00:13:04;;;;;;;;;;;7.40;99.90;;;;;;6307080;22;19899;-83
2023/12/15 00:15:29;;;;;;;;;;;7.40;99.90;;;;;;6307789;22;20309;-83
2023/12/15 00:17:55;;;;;;;;;;;7.40;99.90;;;;;;6307442;22;19899;-83
2023/12/15 00:20:20;;;;;;;;;;;7.40;99.90;;;;;;6308041;22;19948;-83
2023/12/15 00:22:46;;;;;;;;;;;7.40;99.90;;;;;;6307662;22;20297;-83
2023/12/15 00:25:11;;;;;;;;;;;7.50;99.90;;;;;;6307589;22;19937;-83
2023/12/15 00:27:37;;;;;;;;;;;7.50;99.90;;;;;;6307560;22;19899;-83
2023/12/15 00:30:03;;;;;;;;;;;7.50;99.90;;;;;;6308106;22;19906;-83
2023/12/15 00:32:29;;;;;;;;;;;7.50;99.90;;;;;;6307643;22;19979;-83
2023/12/15 00:34:54;;;;;;;;;;;7.50;99.90;;;;;;6305317;22;19938;-83
2023/12/15 00:37:20;;;;;;;;;;;7.50;99.90;;;;;;6303962;22;19945;-83
2023/12/15 00:39:46;;;;;;;;;;;7.50;99.90;;;;;;6306910;22;19903;-83
2023/12/15 00:42:12;;;;;;;;;;;7.50;99.90;;;;;;6307182;22;20233;-83
2023/12/15 00:44:37;;;;;;;;;;;7.40;99.90;;;;;;6308064;22;19899;-83
2023/12/15 00:47:03;;;;;;;;;;;7.50;99.90;;;;;;6279737;22;20313;-83
2023/12/15 00:49:29;;;;;;;;;;;7.40;99.90;;;;;;6279108;22;19934;-82
2023/12/15 00:51:54;;;;;;;;;;;7.40;99.90;;;;;;6306997;22;20260;-82
2023/12/15 00:54:20;;;;;;;;;;;7.40;99.90;;;;;;6307085;22;20355;-82
2023/12/15 00:56:45;;;;;;;;;;;7.40;99.90;;;;;;6307387;22;19952;-82
2023/12/15 00:59:11;;;;;;;;;;;7.40;99.90;;;;;;6307100;22;19902;-82
2023/12/15 01:01:36;;;;;;;;;;;7.30;99.90;;;;;;6307455;22;20286;-82
2023/12/15 01:04:02;;;;;;;;;;;7.30;99.90;;;;;;6307522;22;19898;-82
2023/12/15 01:06:27;;;;;;;;;;;7.30;99.90;;;;;;6307549;22;19899;-82
2023/12/15 01:08:53;;;;;;;;;;;7.20;99.90;;;;;;6307297;22;19902;-82
2023/12/15 01:11:18;;;;;;;;;;;7.30;99.90;;;;;;6307149;22;19906;-82
2023/12/15 01:13:44;;;;;;;;;;;7.20;99.90;;;;;;6307356;22;19898;-82
2023/12/15 01:16:10;;;;;;;;;;;7.20;99.90;;;;;;6307519;22;19907;-82
2023/12/15 01:18:35;;;;;;;;;;;7.20;99.90;;;;;;6306941;22;19906;-82
2023/12/15 01:21:01;;;;;;;;;;;7.10;99.90;;;;;;6307291;22;20213;-82
2023/12/15 01:23:27;;;;;;;;;;;7.10;99.90;;;;;;6307407;22;19986;-82
2023/12/15 01:25:52;;;;;;;;;;;7.10;99.90;;;;;;6307495;22;19902;-82
2023/12/15 01:28:18;;;;;;;;;;;7.10;99.90;;;;;;6306838;22;19905;-83
2023/12/15 01:30:43;;;;;;;;;;;7.10;99.90;;;;;;6307510;22;19906;-82
2023/12/15 01:33:09;;;;;;;;;;;7.10;99.90;;;;;;6307731;22;19899;-83
2023/12/15 01:35:34;;;;;;;;;;;7.10;99.90;;;;;;6306754;22;19913;-83
2023/12/15 01:38:00;;;;;;;;;;;7.00;99.90;;;;;;6306785;22;19925;-83
2023/12/15 01:40:25;;;;;;;;;;;7.00;99.90;;;;;;6307172;22;19899;-82
2023/12/15 01:42:51;;;;;;;;;;;6.90;99.90;;;;;;6307183;22;19899;-83
2023/12/15 01:45:16;;;;;;;;;;;6.90;99.90;;;;;;6306995;22;20182;-82
2023/12/15 01:47:42;;;;;;;;;;;6.90;99.90;;;;;;6307152;22;19898;-83
2023/12/15 01:50:08;;;;;;;;;;;6.90;99.90;;;;;;6307007;22;19906;-82
2023/12/15 01:52:34;;;;;;;;;;;6.90;99.90;;;;;;6306927;22;19925;-82
2023/12/15 01:54:59;;;;;;;;;;;6.90;99.90;;;;;;6307341;22;19911;-82
2023/12/15 01:57:25;;;;;;;;;;;6.90;99.90;;;;;;6305089;22;19898;-82
2023/12/15 01:59:51;;;;;;;;;;;6.90;99.90;;;;;;6279809;22;19899;-82
2023/12/15 02:02:16;;;;;;;;;;;6.90;99.90;;;;;;6308646;22;19899;-81
2023/12/15 02:04:42;;;;;;;;;;;6.90;99.90;;;;;;6309445;22;20213;-81
2023/12/15 02:07:08;;;;;;;;;;;6.90;99.90;;;;;;6308868;22;19953;-81
2023/12/15 02:09:33;;;;;;;;;;;6.90;99.90;;;;;;6308624;22;19899;-82
2023/12/15 02:11:59;;;;;;;;;;;6.90;99.90;;;;;;6308771;22;20282;-82
2023/12/15 02:14:24;;;;;;;;;;;6.90;99.90;;;;;;6309602;22;19906;-82
2023/12/15 02:16:50;;;;;;;;;;;6.90;99.90;;;;;;6308929;22;19906;-82
2023/12/15 02:19:16;;;;;;;;;;;6.90;99.90;;;;;;6308687;22;20221;-82
2023/12/15 02:21:41;;;;;;;;;;;6.90;99.90;;;;;;6309024;22;20297;-82
2023/12/15 02:24:07;;;;;;;;;;;6.90;99.90;;;;;;6308934;22;19898;-82
2023/12/15 02:26:32;;;;;;;;;;;6.90;99.90;;;;;;6308639;22;19898;-82
2023/12/15 02:28:58;;;;;;;;;;;6.90;99.90;;;;;;6308705;22;19905;-83
2023/12/15 02:31:24;;;;;;;;;;;6.90;99.90;;;;;;6308882;22;19933;-83
2023/12/15 02:33:50;;;;;;;;;;;6.90;99.90;;;;;;6308981;22;19899;-83
2023/12/15 02:36:19;;;;;;;;;;;6.90;99.90;;;;;;6308434;22;19993;-83
2023/12/15 02:38:45;;;;;;;;;;;6.80;99.90;;;;;;6308291;22;20214;-83
2023/12/15 02:41:11;;;;;;;;;;;6.90;99.90;;;;;;6308696;22;19910;-83
2023/12/15 02:43:36;;;;;;;;;;;6.90;99.90;;;;;;6308637;22;19899;-83
2023/12/15 02:46:02;;;;;;;;;;;6.90;99.90;;;;;;6308317;22;19899;-83
2023/12/15 02:48:27;;;;;;;;;;;6.90;99.90;;;;;;6308796;22;19906;-84
2023/12/15 02:50:53;;;;;;;;;;;6.90;99.90;;;;;;6308415;22;20429;-83
2023/12/15 02:53:18;;;;;;;;;;;6.90;99.80;;;;;;6308494;22;19903;-83
2023/12/15 02:55:44;;;;;;;;;;;6.90;99.90;;;;;;6308555;22;19903;-84
2023/12/15 02:58:10;;;;;;;;;;;6.90;99.80;;;;;;6308798;22;19899;-82
2023/12/15 03:00:35;;;;;;;;;;;6.80;99.80;;;;;;6308493;22;19905;-83
2023/12/15 03:03:01;;;;;;;;;;;6.80;99.80;;;;;;6308666;22;20228;-84
2023/12/15 03:05:26;;;;;;;;;;;6.80;99.90;;;;;;6308539;22;19899;-84
2023/12/15 03:07:52;;;;;;;;;;;6.80;99.80;;;;;;6308231;22;19899;-84
2023/12/15 03:10:17;;;;;;;;;;;6.80;99.90;;;;;;6308173;22;19952;-83
2023/12/15 03:12:43;;;;;;;;;;;6.80;99.80;;;;;;6308116;22;19903;-83
2023/12/15 03:15:08;;;;;;;;;;;6.80;99.80;;;;;;6308317;22;19910;-83
2023/12/15 03:17:34;;;;;;;;;;;6.80;99.60;;;;;;6308628;22;19903;-82
2023/12/15 03:20:00;;;;;;;;;;;6.90;99.60;;;;;;6308000;22;19906;-80
2023/12/15 03:22:25;;;;;;;;;;;6.90;99.50;;;;;;6307480;22;20312;-79
2023/12/15 03:24:51;;;;;;;;;;;6.80;99.50;;;;;;6280570;22;19931;-79
2023/12/15 03:27:16;;;;;;;;;;;6.80;99.50;;;;;;6280091;22;19899;-80
2023/12/15 03:29:43;;;;;;;;;;;6.80;99.60;;;;;;6307684;22;19905;-80
2023/12/15 03:32:08;;;;;;;;;;;6.80;99.70;;;;;;6307527;22;19964;-79
2023/12/15 03:34:34;;;;;;;;;;;6.80;99.60;;;;;;6307770;22;20309;-80
2023/12/15 03:36:59;;;;;;;;;;;6.80;99.50;;;;;;6307744;22;20367;-79
2023/12/15 03:39:25;;;;;;;;;;;6.80;99.40;;;;;;6280633;22;19975;-79
2023/12/15 03:41:50;;;;;;;;;;;6.80;99.40;;;;;;6307831;22;19899;-79
2023/12/15 03:44:16;;;;;;;;;;;6.80;99.40;;;;;;6308064;22;20260;-80
2023/12/15 03:46:41;;;;;;;;;;;6.80;99.40;;;;;;6307042;22;19903;-80
2023/12/15 03:49:07;;;;;;;;;;;6.80;99.40;;;;;;6307799;22;19941;-80
2023/12/15 03:51:32;;;;;;;;;;;6.80;99.40;;;;;;6307989;22;20332;-80
2023/12/15 03:53:58;;;;;;;;;;;6.80;99.40;;;;;;6308119;22;19899;-79
2023/12/15 03:56:24;;;;;;;;;;;6.70;99.30;;;;;;6308031;22;19903;-79
2023/12/15 03:58:50;;;;;;;;;;;6.70;99.50;;;;;;6308173;22;19899;-79
2023/12/15 04:01:15;;;;;;;;;;;6.70;99.50;;;;;;6308363;22;19997;-80
2023/12/15 04:03:41;;;;;;;;;;;6.80;99.40;;;;;;6308043;22;19903;-79
2023/12/15 04:06:08;;;;;;;;;;;6.80;99.40;;;;;;6280087;22;19903;-80
2023/12/15 04:08:36;;;;;;;;;;;6.70;99.30;;;;;;6307838;22;19899;-79
2023/12/15 04:11:02;;;;;;;;;;;6.70;99.20;;;;;;6308228;22;19906;-79
2023/12/15 04:13:27;;;;;;;;;;;6.70;99.40;;;;;;6308256;22;19903;-79
2023/12/15 04:15:53;;;;;;;;;;;6.70;99.40;;;;;;6307771;22;19913;-79
2023/12/15 04:18:19;;;;;;;;;;;6.70;99.50;;;;;;6279918;22;20213;-79
2023/12/15 04:20:44;;;;;;;;;;;6.80;99.40;;;;;;6307966;22;19982;-79
2023/12/15 04:23:10;;;;;;;;;;;6.80;99.40;;;;;;6307946;22;19979;-79
2023/12/15 04:25:35;;;;;;;;;;;6.80;99.20;;;;;;6279721;22;19899;-79
2023/12/15 04:28:01;;;;;;;;;;;6.80;99.50;;;;;;6306989;22;20221;-80
2023/12/15 04:30:27;;;;;;;;;;;6.80;99.30;;;;;;6307763;22;20209;-80
2023/12/15 04:32:52;;;;;;;;;;;6.80;99.30;;;;;;6307724;22;20293;-80
2023/12/15 04:35:19;;;;;;;;;;;6.80;99.20;;;;;;6280324;22;20278;-79
2023/12/15 04:37:47;;;;;;;;;;;6.80;99.10;;;;;;6280122;22;19925;-79
2023/12/15 04:40:15;;;;;;;;;;;6.80;99.10;;;;;;6279856;22;19977;-79
2023/12/15 04:42:41;;;;;;;;;;;6.80;99.10;;;;;;6307691;22;19989;-79
2023/12/15 04:45:07;;;;;;;;;;;6.70;99.00;;;;;;6307797;22;19937;-79
2023/12/15 04:47:33;;;;;;;;;;;6.70;99.00;;;;;;6307210;22;19931;-78
2023/12/15 04:49:58;;;;;;;;;;;6.70;99.10;;;;;;6307043;22;20309;-79
2023/12/15 04:52:24;;;;;;;;;;;6.70;99.00;;;;;;6279893;22;20080;-78
2023/12/15 04:54:49;;;;;;;;;;;6.70;99.10;;;;;;6307299;22;19948;-78
2023/12/15 04:57:15;;;;;;;;;;;6.70;99.10;;;;;;6307799;22;19905;-78
2023/12/15 04:59:41;;;;;;;;;;;6.70;99.00;;;;;;6307507;22;20275;-79
2023/12/15 05:02:07;;;;;;;;;;;6.70;99.00;;;;;;6280236;22;20305;-79
2023/12/15 05:04:33;;;;;;;;;;;6.70;99.00;;;;;;6307548;22;19899;-79
2023/12/15 05:06:58;;;;;;;;;;;6.70;98.90;;;;;;6307285;22;19969;-79
2023/12/15 05:09:24;;;;;;;;;;;6.70;99.00;;;;;;6307598;22;19972;-79
2023/12/15 05:11:50;;;;;;;;;;;6.70;98.90;;;;;;6307837;22;19903;-79
2023/12/15 05:14:15;;;;;;;;;;;6.70;98.90;;;;;;6307833;22;19898;-79
2023/12/15 05:16:41;;;;;;;;;;;6.70;99.00;;;;;;6306331;22;19921;-79
2023/12/15 05:19:06;;;;;;;;;;;6.70;98.90;;;;;;6307093;22;19930;-78
2023/12/15 05:21:32;;;;;;;;;;;6.70;98.90;;;;;;6307055;22;19902;-79
2023/12/15 05:23:58;;;;;;;;;;;6.60;98.90;;;;;;6307014;22;19941;-79
2023/12/15 05:26:25;;;;;;;;;;;6.60;98.90;;;;;;6279902;22;20313;-80
2023/12/15 05:28:51;;;;;;;;;;;6.60;99.00;;;;;;6308028;22;19903;-81
2023/12/15 05:31:17;;;;;;;;;;;6.60;99.00;;;;;;6280361;22;19899;-82
2023/12/15 05:33:43;;;;;;;;;;;6.70;99.30;;;;;;6307492;22;20254;-81
2023/12/15 05:36:16;;;;;;;;;;;6.70;99.00;;;;;;6308254;22;19981;-81
2023/12/15 05:38:42;;;;;;;;;;;6.80;99.00;;;;;;6308953;22;19898;-82
2023/12/15 05:41:07;;;;;;;;;;;6.80;98.90;;;;;;6308939;22;19922;-82
2023/12/15 05:43:33;;;;;;;;;;;6.80;98.80;;;;;;6307936;22;20225;-82
2023/12/15 05:45:58;;;;;;;;;;;6.70;98.80;;;;;;6280931;22;19906;-82
2023/12/15 05:48:24;;;;;;;;;;;6.70;98.90;;;;;;6309133;22;19899;-82
2023/12/15 05:50:49;;;;;;;;;;;6.70;98.80;;;;;;6307508;22;19910;-82
2023/12/15 05:53:15;;;;;;;;;;;6.80;98.70;;;;;;6304381;22;19922;-82
2023/12/15 05:55:41;;;;;;;;;;;6.70;98.70;;;;;;6308352;22;20205;-82
2023/12/15 05:58:07;;;;;;;;;;;6.70;98.80;;;;;;6307400;22;19945;-82
2023/12/15 06:00:32;;;;;;;;;;;6.70;98.70;;;;;;6308088;22;19899;-81
2023/12/15 06:02:58;;;;;;;;;;;6.80;98.70;;;;;;6308744;22;19960;-82
2023/12/15 06:05:23;;;;;;;;;;;6.80;98.70;;;;;;6308362;22;19898;-81
2023/12/15 06:07:49;;;;;;;;;;;6.70;98.70;;;;;;6308173;22;19903;-79
2023/12/15 06:10:14;;;;;;;;;;;6.70;98.70;;;;;;6309082;22;20213;-79
2023/12/15 06:12:40;;;;;;;;;;;6.70;98.70;;;;;;6308671;22;19925;-79
2023/12/15 06:15:06;;;;;;;;;;;6.70;98.70;;;;;;6308811;22;19906;-79
2023/12/15 06:17:31;;;;;;;;;;;6.70;98.70;;;;;;6281300;22;19899;-79
2023/12/15 06:19:57;;;;;;;;;;;6.70;98.70;;;;;;6306960;22;19927;-80
2023/12/15 06:22:22;;;;;;;;;;;6.70;98.80;;;;;;6305900;22;19899;-80
2023/12/15 06:24:48;;;;;;;;;;;6.60;98.80;;;;;;6308668;22;19899;-82
2023/12/15 06:27:13;;;;;;;;;;;6.60;98.90;;;;;;6308658;22;19906;-83
2023/12/15 06:29:40;;;;;;;;;;;6.60;98.90;;;;;;6308303;22;19903;-79
2023/12/15 06:32:06;;;;;;;;;;;6.60;98.90;;;;;;6307619;22;19899;-79
2023/12/15 06:34:32;;;;;;;;;;;6.70;98.90;;;;;;6307209;22;19978;-79
2023/12/15 06:36:57;;;;;;;;;;;6.60;98.80;;;;;;6308781;22;19899;-79
2023/12/15 06:39:23;;;;;;;;;;;6.70;98.80;;;;;;6308373;22;20404;-79
2023/12/15 06:41:48;;;;;;;;;;;6.60;98.80;;;;;;6308822;22;19930;-79
2023/12/15 06:44:14;;;;;;;;;;;6.60;98.80;;;;;;6309139;22;19898;-78
2023/12/15 06:46:40;;;;;;;;;;;6.60;98.90;;;;;;6308921;22;19899;-79
2023/12/15 06:49:05;;;;;;;;;;;6.60;98.90;;;;;;6307090;22;19899;-79
2023/12/15 06:51:31;;;;;;;;;;;6.60;98.90;;;;;;6307709;22;19917;-80
2023/12/15 06:53:56;;;;;;;;;;;6.60;99.00;;;;;;6308476;22;20198;-79
2023/12/15 06:56:22;;;;;;;;;;;6.60;99.00;;;;;;6281216;22;19916;-79
2023/12/15 06:58:47;;;;;;;;;;;6.70;99.00;;;;;;6308244;22;19899;-79
2023/12/15 07:01:13;;;;;;;;;;;6.70;99.10;;;;;;6308495;22;19903;-80
2023/12/15 07:03:39;;;;;;;;;;;6.70;98.90;;;;;;6308320;22;19902;-81
2023/12/15 07:06:05;;;;;;;;;;;6.70;98.90;;;;;;6308684;22;20245;-80
2023/12/15 07:08:31;;;;;;;;;;;6.70;99.20;;;;;;6308469;22;19906;-80
2023/12/15 07:10:56;;;;;;;;;;;6.80;99.00;;;;;;6280893;22;19898;-83
2023/12/15 07:13:22;;;;;;;;;;;6.80;99.00;;;;;;6308432;22;19899;-83
2023/12/15 07:15:48;;;;;;;;;;;6.80;98.90;;;;;;6308236;22;19903;-83
2023/12/15 07:18:13;;;;;;;;;;;6.90;98.90;;;;;;6307894;22;19899;-82
2023/12/15 07:20:39;;;;;;;;;;;6.80;98.80;;;;;;6308254;22;19906;-82
2023/12/15 07:23:04;;;;;;;;;;;6.80;98.80;;;;;;6281029;22;19906;-83
2023/12/15 07:25:30;;;;;;;;;;;6.90;98.90;;;;;;6307745;22;20316;-83
2023/12/15 07:27:55;;;;;;;;;;;6.90;99.00;;;;;;6308331;22;19906;-82
2023/12/15 07:30:21;;;;;;;;;;;7.00;99.00;;;;;;6308763;22;19964;-80
2023/12/15 07:32:47;;;;;;;;;;;7.00;99.00;;;;;;6308514;22;20217;-81
2023/12/15 07:35:12;;;;;;;;;;;7.00;98.80;;;;;;6280358;22;19909;-82
2023/12/15 07:37:38;;;;;;;;;;;7.10;99.60;;;;;;6307414;22;19899;-81
2023/12/15 07:40:03;;;;;;;;;;;7.20;99.20;;;;;;6307823;22;20289;-81
2023/12/15 07:42:29;;;;;;;;;;;7.20;99.10;;;;;;6307774;22;19933;-81
2023/12/15 07:44:55;;;;;;;;;;;7.30;99.10;;;;;;6307149;22;20206;-82
2023/12/15 07:47:21;;;;;;;;;;;7.30;98.90;;;;;;6307517;22;19910;-82
2023/12/15 07:49:46;;;;;;;;;;;7.40;98.90;;;;;;6308131;22;19899;-82
2023/12/15 07:52:12;;;;;;;;;;;7.40;98.80;;;;;;6308067;22;19917;-82
2023/12/15 07:54:37;;;;;;;;;;;7.40;98.80;;;;;;6308522;22;19899;-81
2023/12/15 07:57:03;;;;;;;;;;;7.50;98.80;;;;;;6307479;22;19906;-81
2023/12/15 07:59:28;;;;;;;;;;;7.50;98.70;;;;;;6306763;22;19921;-81
2023/12/15 08:01:59;;;;;;;;;;;7.50;98.70;;;;;;6308114;22;19960;-81
2023/12/15 08:04:25;;;;;;;;;;;7.50;98.80;;;;;;6280965;22;19906;-82
2023/12/15 08:06:50;;;;;;;;;;;7.50;98.80;;;;;;6308177;22;20285;-82
2023/12/15 08:09:16;;;;;;;;;;;7.60;98.90;;;;;;6308229;22;19906;-82
2023/12/15 08:11:41;;;;;;;;;;;7.60;98.90;;;;;;6307896;22;19899;-82
2023/12/15 08:14:11;;;;;;;;;;;7.60;98.80;;;;;;6306218;22;19899;-82
2023/12/15 08:16:36;;;;;;;;;;;7.60;98.80;;;;;;6307772;22;19910;-82
2023/12/15 08:19:06;;;;;;;;;;;7.60;98.90;;;;;;6307699;22;19902;-81
2023/12/15 08:21:32;;;;;;;;;;;7.70;98.90;;;;;;6307259;22;19899;-81
2023/12/15 08:24:03;;;;;;;;;;;7.70;98.90;;;;;;6279727;22;19906;-81
2023/12/15 08:26:32;;;;;;;;;;;7.70;99.00;;;;;;6280111;22;19937;-81
2023/12/15 08:28:58;;;;;;;;;;;7.70;99.00;;;;;;6280102;22;19899;-81
2023/12/15 08:31:23;;;;;;;;;;;7.80;99.00;;;;;;6307323;22;19921;-82
2023/12/15 08:33:49;;;;;;;;;;;7.90;99.00;;;;;;6302421;22;20237;-80
2023/12/15 08:36:15;;;;;;;;;;;7.90;99.00;;;;;;6307557;22;19909;-81
2023/12/15 08:38:41;;;;;;;;;;;8.00;99.00;;;;;;6307118;22;20289;-81
2023/12/15 08:41:07;;;;;;;;;;;8.10;99.00;;;;;;6307265;22;19898;-82
2023/12/15 08:43:32;;;;;;;;;;;8.10;98.90;;;;;;6305808;22;19899;-81
2023/12/15 08:45:58;;;;;;;;;;;8.20;99.00;;;;;;6307450;22;19899;-82
2023/12/15 08:48:23;;;;;;;;;;;8.30;99.00;;;;;;6306790;22;19906;-81
2023/12/15 08:50:49;;;;;;;;;;;8.40;98.50;;;;;;6307159;22;19990;-81
2023/12/15 08:53:16;;;;;;;;;;;8.40;98.40;;;;;;6307085;22;20213;-80
2023/12/15 08:55:42;;;;;;;;;;;8.50;98.10;;;;;;6307538;22;19902;-80
2023/12/15 08:58:07;;;;;;;;;;;8.60;97.80;;;;;;6307576;22;19909;-81
2023/12/15 09:00:34;;;;;;;;;;;8.70;98.00;;;;;;6308029;22;19898;-80
2023/12/15 09:03:00;;;;;;;;;;;8.80;98.00;;;;;;6279939;22;20225;-81
2023/12/15 09:05:26;;;;;;;;;;;8.90;98.00;;;;;;6307997;22;19899;-81
2023/12/15 09:07:54;;;;;;;;;;;9.00;96.60;;;;;;6305037;22;19948;-83
2023/12/15 09:10:20;;;;;;;;;;;9.00;96.20;;;;;;6308223;22;19899;-81
2023/12/15 09:12:46;;;;;;;;;;;9.10;95.50;;;;;;6310058;22;20328;-80
2023/12/15 09:15:12;;;;;;;;;;;9.20;96.20;;;;;;6309657;22;19907;-81
2023/12/15 09:17:46;;;;;;;;;;;9.30;96.20;;;;;;6309902;22;19899;-81
2023/12/15 09:20:12;;;;;;;;;;;9.40;96.40;;;;;;6309892;22;19899;-81
2023/12/15 09:22:38;;;;;;;;;;;9.50;96.30;;;;;;6309121;22;20213;-81
2023/12/15 09:25:05;;;;;;;;;;;9.70;96.40;;;;;;6282305;22;19899;-80
2023/12/15 09:27:30;;;;;;;;;;;9.80;96.30;;;;;;6309542;22;19974;-80
2023/12/15 09:29:56;;;;;;;;;;;9.80;95.20;;;;;;6309600;22;19930;-80
2023/12/15 09:32:21;;;;;;;;;;;9.90;95.20;;;;;;6308151;22;19926;-80
2023/12/15 09:34:47;;;;;;;;;;;9.90;95.50;;;;;;6308705;22;19898;-80
2023/12/15 09:37:13;;;;;;;;;;;10.00;95.70;;;;;;6309752;22;19952;-80
2023/12/15 09:39:39;;;;;;;;;;;10.10;95.80;;;;;;6308950;22;19982;-80
2023/12/15 09:42:05;;;;;;;;;;;10.10;95.90;;;;;;6307900;22;20226;-80
2023/12/15 09:44:30;;;;;;;;;;;10.20;96.00;;;;;;6282077;22;19921;-80
2023/12/15 09:46:57;;;;;;;;;;;10.20;96.20;;;;;;6308712;22;20003;-81
2023/12/15 09:49:24;;;;;;;;;;;10.20;96.20;;;;;;6307401;22;19903;-81
2023/12/15 09:51:50;;;;;;;;;;;10.30;96.30;;;;;;6308164;22;19911;-80
2023/12/15 09:54:16;;;;;;;;;;;10.40;96.40;;;;;;6309528;22;19906;-83
2023/12/15 09:56:42;;;;;;;;;;;10.40;96.80;;;;;;6308982;22;19953;-83
2023/12/15 09:59:08;;;;;;;;;;;10.50;96.90;;;;;;6308554;22;19898;-84
2023/12/15 10:01:33;;;;;;;;;;;10.60;96.20;;;;;;6308964;22;19899;-83
2023/12/15 10:03:59;;;;;;;;;;;10.60;96.20;;;;;;6309001;22;19926;-83
2023/12/15 10:06:25;;;;;;;;;;;10.70;96.10;;;;;;6282181;22;19899;-85
2023/12/15 10:08:50;;;;;;;;;;;10.70;96.00;;;;;;6307506;22;19977;-82
2023/12/15 10:11:16;;;;;;;;;;;10.70;96.10;;;;;;6308887;22;19899;-82
2023/12/15 10:13:42;;;;;;;;;;;10.70;94.60;;;;;;6308857;22;19899;-82
2023/12/15 10:16:11;;;;;;;;;;;10.80;95.10;;;;;;6308910;22;19909;-81
2023/12/15 10:18:37;;;;;;;;;;;10.90;95.40;;;;;;6308632;22;19898;-81
2023/12/15 10:21:04;;;;;;;;;;;11.10;95.10;;;;;;6308483;22;20351;-81
2023/12/15 10:23:30;;;;;;;;;;;11.20;95.30;;;;;;6308124;22;20324;-81
2023/12/15 10:25:59;;;;;;;;;;;11.50;95.40;;;;;;6308149;22;19898;-81
2023/12/15 10:28:24;;;;;;;;;;;11.70;95.40;;;;;;6308573;22;20217;-83
2023/12/15 10:30:50;;;;;;;;;;;12.00;95.40;;;;;;6308167;22;19906;-83
2023/12/15 10:33:17;;;;;;;;;;;12.20;93.30;;;;;;6308642;22;19906;-83
2023/12/15 10:35:45;;;;;;;;;;;12.40;93.80;;;;;;6308649;22;19910;-83
2023/12/15 10:38:10;;;;;;;;;;;12.50;91.90;;;;;;6307690;22;19899;-84
2023/12/15 10:40:36;;;;;;;;;;;12.60;91.20;;;;;;6306534;22;19899;-84
2023/12/15 10:43:03;;;;;;;;;;;12.70;91.60;;;;;;6308376;22;19930;-83
2023/12/15 10:45:29;;;;;;;;;;;12.90;92.20;;;;;;6308893;22;20348;-83
2023/12/15 10:47:56;;;;;;;;;;;13.10;92.40;;;;;;6308466;22;20320;-83
2023/12/15 10:50:22;;;;;;;;;;;13.30;90.70;;;;;;6308865;22;19907;-84
2023/12/15 10:52:49;;;;;;;;;;;13.30;88.00;;;;;;6309290;22;20213;-83
2023/12/15 10:55:15;;;;;;;;;;;13.10;87.60;;;;;;6308523;22;19903;-85
2023/12/15 10:57:41;;;;;;;;;;;13.10;90.40;;;;;;6308329;22;20366;-84
2023/12/15 11:00:07;;;;;;;;;;;13.30;91.30;;;;;;6307947;22;19903;-84
2023/12/15 11:02:33;;;;;;;;;;;13.60;91.20;;;;;;6307895;22;19899;-84
2023/12/15 11:04:59;;;;;;;;;;;13.90;91.20;;;;;;6309050;22;19899;-84
2023/12/15 11:07:25;;;;;;;;;;;14.10;90.80;;;;;;6309160;22;19898;-84
2023/12/15 11:09:51;;;;;;;;;;;14.30;90.50;;;;;;6309724;22;19903;-85
2023/12/15 11:12:28;;;;;;;;;;;14.50;90.40;;;;;;6308321;22;19985;-85
2023/12/15 11:14:58;;;;;;;;;;;14.70;90.30;;;;;;6307420;22;19899;-84
2023/12/15 11:17:23;;;;;;;;;;;14.90;90.10;;;;;;6308372;22;19981;-85
2023/12/15 11:19:52;;;;;;;;;;;15.00;89.50;;;;;;6308796;22;19931;-84
2023/12/15 11:22:18;;;;;;;;;;;15.10;84.30;;;;;;6308892;22;19924;-84
2023/12/15 11:24:44;;;;;;;;;;;15.10;87.40;;;;;;6308302;22;19899;-84
2023/12/15 11:27:15;;;;;;;;;;;14.90;83.00;;;;;;6308494;22;20294;-84
2023/12/15 11:29:41;;;;;;;;;;;14.90;86.60;;;;;;6308509;22;20267;-84
2023/12/15 11:32:25;;;;;;;;;;;15.10;88.00;;;;;;6308328;22;20306;-84
2023/12/15 11:34:51;;;;;;;;;;;15.30;85.30;;;;;;6308130;22;19906;-84
2023/12/15 11:37:17;;;;;;;;;;;15.70;88.30;;;;;;6306575;22;19905;-84
2023/12/15 11:39:46;;;;;;;;;;;16.10;87.20;;;;;;6308028;22;19899;-84
2023/12/15 11:42:12;;;;;;;;;;;16.90;87.20;;;;;;6308357;22;19941;-84
2023/12/15 11:44:37;;;;;;;;;;;18.00;85.40;;;;;;6306829;22;19899;-84
2023/12/15 11:47:04;;;;;;;;;;;19.10;82.00;;;;;;6308613;22;19903;-84
2023/12/15 12:00:36;;;;;;;;;;;23.30;66.80;;;;;;6200065;22;19910;-86
2023/12/15 12:03:03;;;;;;;;;;;23.80;65.40;;;;;;6243836;23;19907;-87
2023/12/15 12:05:29;;;;;;;;;;;24.20;64.10;;;;;;6245272;23;19953;-87
2023/12/15 12:07:56;;;;;;;;;;;24.40;62.90;;;;;;6245662;23;20292;-86
2023/12/15 12:10:30;;;;;;;;;;;24.70;60.20;;;;;;6245809;23;19903;-87
2023/12/15 12:12:59;;;;;;;;;;;24.80;60.40;;;;;;6245070;23;19922;-88
2023/12/15 12:15:25;;;;;;;;;;;24.90;58.10;;;;;;6245022;23;19903;-86
2023/12/15 12:17:52;;;;;;;;;;;24.90;58.00;;;;;;6218818;23;20305;-86
2023/12/15 12:20:17;;;;;;;;;;;24.90;57.50;;;;;;6246644;23;19907;-85
2023/12/15 12:22:43;;;;;;;;;;;24.80;55.80;;;;;;6246883;23;19899;-86
2023/12/15 12:25:13;;;;;;;;;;;24.60;56.20;;;;;;6246401;23;19935;-85
2023/12/15 12:27:39;;;;;;;;;;;24.50;57.30;;;;;;6246217;23;19945;-85
2023/12/15 12:30:16;;;;;;;;;;;24.50;57.60;;;;;;6244555;23;20261;-86
2023/12/15 12:32:41;;;;;;;;;;;24.40;58.10;;;;;;6244269;23;20313;-85
2023/12/15 12:35:07;;;;;;;;;;;24.00;54.70;;;;;;6244684;23;20181;-86
2023/12/15 12:37:33;;;;;;;;;;;23.00;54.10;;;;;;6245038;23;19927;-86
2023/12/15 12:39:59;;;;;;;;;;;22.50;58.20;;;;;;6244499;23;19911;-86
2023/12/15 12:42:26;;;;;;;;;;;22.20;58.30;;;;;;6218985;23;19965;-86
2023/12/15 12:44:54;;;;;;;;;;;21.90;57.50;;;;;;6244744;23;20236;-85
2023/12/15 12:47:20;;;;;;;;;;;21.50;58.10;;;;;;6245082;23;19977;-86
2023/12/15 12:49:46;;;;;;;;;;;21.20;61.00;;;;;;6245389;23;20356;-86
2023/12/15 12:52:12;;;;;;;;;;;21.10;61.70;;;;;;6244974;23;19978;-86
2023/12/15 12:54:37;;;;;;;;;;;21.20;62.40;;;;;;6245044;23;20252;-86
2023/12/15 12:57:03;;;;;;;;;;;21.30;62.40;;;;;;6218398;23;19970;-86
2023/12/15 12:59:29;;;;;;;;;;;21.50;62.50;;;;;;6245093;23;19907;-86
2023/12/15 13:01:55;;;;;;;;;;;21.60;61.50;;;;;;6244917;23;19978;-86
2023/12/15 13:04:21;;;;;;;;;;;21.60;61.60;;;;;;6244920;23;19900;-86
2023/12/15 13:06:47;;;;;;;;;;;21.60;61.10;;;;;;6245431;23;19923;-86
2023/12/15 13:09:18;;;;;;;;;;;21.50;62.80;;;;;;6246560;23;20316;-86
2023/12/15 13:11:44;;;;;;;;;;;21.50;63.30;;;;;;6244596;23;19899;-86
2023/12/15 13:14:09;;;;;;;;;;;21.40;63.00;;;;;;6244221;23;20268;-85
2023/12/15 13:16:35;;;;;;;;;;;21.30;63.20;;;;;;6218076;23;19903;-85
2023/12/15 13:19:00;;;;;;;;;;;21.20;62.40;;;;;;6218591;23;19899;-85
2023/12/15 13:21:26;;;;;;;;;;;21.10;61.10;;;;;;6245992;23;20306;-85
2023/12/15 13:23:52;;;;;;;;;;;20.80;59.20;;;;;;6245378;23;19931;-86
2023/12/15 13:26:18;;;;;;;;;;;20.30;60.10;;;;;;6245167;23;20516;-85
2023/12/15 13:28:43;;;;;;;;;;;19.80;61.60;;;;;;6243535;23;19996;-86
2023/12/15 13:31:09;;;;;;;;;;;19.40;63.00;;;;;;6242994;23;19922;-85
2023/12/15 13:33:34;;;;;;;;;;;19.00;64.70;;;;;;6243883;23;19954;-86
2023/12/15 13:36:00;;;;;;;;;;;18.50;64.80;;;;;;6245713;23;19910;-86
2023/12/15 13:38:27;;;;;;;;;;;18.20;65.90;;;;;;6243655;23;20318;-86
2023/12/15 13:40:53;;;;;;;;;;;17.90;67.20;;;;;;6244170;23;20318;-85
2023/12/15 13:43:18;;;;;;;;;;;17.60;68.80;;;;;;6246061;23;19908;-85
2023/12/15 13:45:44;;;;;;;;;;;17.40;69.70;;;;;;6246357;23;19900;-85
2023/12/15 13:48:09;;;;;;;;;;;17.20;70.40;;;;;;6245244;23;19973;-85
2023/12/15 13:50:35;;;;;;;;;;;17.00;71.30;;;;;;6216942;23;20385;-85
2023/12/15 13:53:02;;;;;;;;;;;16.80;72.00;;;;;;6244095;23;19954;-85
2023/12/15 13:55:28;;;;;;;;;;;16.70;73.10;;;;;;6244288;23;19907;-84
2023/12/15 13:57:54;;;;;;;;;;;16.50;73.40;;;;;;6219154;23;19959;-85
2023/12/15 14:00:21;;;;;;;;;;;16.40;73.80;;;;;;6247063;23;20206;-86
2023/12/15 14:02:47;;;;;;;;;;;16.20;74.30;;;;;;6220753;23;19911;-87
2023/12/15 14:05:13;;;;;;;;;;;16.20;74.40;;;;;;6221661;23;19922;-83
2023/12/15 14:07:39;;;;;;;;;;;16.10;74.60;;;;;;6247229;23;19950;-83
2023/12/15 14:10:05;;;;;;;;;;;16.00;75.00;;;;;;6246166;23;19922;-83
2023/12/15 14:12:32;;;;;;;;;;;15.90;75.60;;;;;;6246226;23;19982;-83
2023/12/15 14:14:57;;;;;;;;;;;15.80;76.70;;;;;;6219801;23;20318;-86
2023/12/15 14:17:23;;;;;;;;;;;15.70;77.30;;;;;;6247971;23;19908;-85
2023/12/15 14:19:50;;;;;;;;;;;15.70;78.30;;;;;;6248508;23;19904;-84
2023/12/15 14:22:17;;;;;;;;;;;15.60;77.20;;;;;;6247877;23;19899;-85
2023/12/15 14:24:44;;;;;;;;;;;15.60;77.40;;;;;;6248469;23;19900;-84
2023/12/15 14:27:10;;;;;;;;;;;15.50;78.30;;;;;;6248184;23;19899;-85
2023/12/15 14:29:36;;;;;;;;;;;15.40;79.20;;;;;;6248363;23;19910;-84